sensor_id;sensor_type;location;lat;lon;timestamp;temperature;humidity
32895;DHT22;19251;49.484;8.260;2023-02-21T00:01:17;12.30;21.00
32895;DHT22;19251;49.484;8.260;2023-02-21T00:06:38;12.30;21.30
32895;DHT22;19251;49.484;8.260;2023-02-21T00:11:58;12.40;21.10
32895;DHT22;19251;49.484;8.260;2023-02-21T00:17:19;12.50;21.00
32895;DHT22;19251;49.484;8.260;2023-02-21T00:22:40;12.50;20.90
32895;DHT22;19251;49.484;8.260;2023-02-21T00:28:00;12.60;20.90
32895;DHT22;19251;49.484;8.260;2023-02-21T00:33:21;12.60;21.10
32895;DHT22;19251;49.484;8.260;2023-02-21T00:38:42;12.50;20.90
32895;DHT22;19251;49.484;8.260;2023-02-21T00:44:02;12.80;21.20
32895;DHT22;19251;49.484;8.260;2023-02-21T00:49:23;12.70;20.80
32895;DHT22;19251;49.484;8.260;2023-02-21T00:54:43;12.90;21.30
32895;DHT22;19251;49.484;8.260;2023-02-21T01:00:05;12.80;21.00
32895;DHT22;19251;49.484;8.260;2023-02-21T01:05:27;12.80;21.00
32895;DHT22;19251;49.484;8.260;2023-02-21T01:10:48;13.00;21.10
32895;DHT22;19251;49.484;8.260;2023-02-21T01:16:09;12.90;20.90
32895;DHT22;19251;49.484;8.260;2023-02-21T01:21:29;12.80;20.70
32895;DHT22;19251;49.484;8.260;2023-02-21T01:26:50;12.90;20.70
32895;DHT22;19251;49.484;8.260;2023-02-21T01:32:11;12.80;20.50
32895;DHT22;19251;49.484;8.260;2023-02-21T01:37:32;12.90;20.40
32895;DHT22;19251;49.484;8.260;2023-02-21T01:42:53;12.50;19.60
32895;DHT22;19251;49.484;8.260;2023-02-21T01:48:14;12.30;20.00
32895;DHT22;19251;49.484;8.260;2023-02-21T01:53:36;12.20;19.70
32895;DHT22;19251;49.484;8.260;2023-02-21T01:58:58;12.00;19.30
32895;DHT22;19251;49.484;8.260;2023-02-21T02:04:20;11.70;19.80
32895;DHT22;19251;49.484;8.260;2023-02-21T02:09:40;11.60;19.30
32895;DHT22;19251;49.484;8.260;2023-02-21T02:20:21;11.20;19.70
32895;DHT22;19251;49.484;8.260;2023-02-21T02:36:27;11.00;20.30
32895;DHT22;19251;49.484;8.260;2023-02-21T02:46:43;10.60;20.30
32895;DHT22;19251;49.484;8.260;2023-02-21T02:51:46;10.50;20.30
32895;DHT22;19251;49.484;8.260;2023-02-21T02:56:49;10.50;20.30
32895;DHT22;19251;49.484;8.260;2023-02-21T03:17:06;10.00;20.50
32895;DHT22;19251;49.484;8.260;2023-02-21T03:22:12;9.90;20.90
32895;DHT22;19251;49.484;8.260;2023-02-21T03:27:16;9.80;21.60
32895;DHT22;19251;49.484;8.260;2023-02-21T03:32:30;9.70;21.50
32895;DHT22;19251;49.484;8.260;2023-02-21T03:42:36;9.50;21.60
32895;DHT22;19251;49.484;8.260;2023-02-21T03:47:39;9.40;21.60
32895;DHT22;19251;49.484;8.260;2023-02-21T03:52:41;9.60;21.90
32895;DHT22;19251;49.484;8.260;2023-02-21T03:57:43;9.20;21.70
32895;DHT22;19251;49.484;8.260;2023-02-21T04:02:45;9.10;21.60
32895;DHT22;19251;49.484;8.260;2023-02-21T04:07:49;9.10;21.80
32895;DHT22;19251;49.484;8.260;2023-02-21T04:12:51;8.90;21.40
32895;DHT22;19251;49.484;8.260;2023-02-21T04:17:53;8.80;21.40
32895;DHT22;19251;49.484;8.260;2023-02-21T04:22:56;8.70;21.80
32895;DHT22;19251;49.484;8.260;2023-02-21T04:28:06;8.70;22.40
32895;DHT22;19251;49.484;8.260;2023-02-21T04:33:08;8.60;22.40
32895;DHT22;19251;49.484;8.260;2023-02-21T04:38:10;8.60;21.90
32895;DHT22;19251;49.484;8.260;2023-02-21T04:43:12;8.70;22.40
32895;DHT22;19251;49.484;8.260;2023-02-21T04:48:14;8.50;22.40
32895;DHT22;19251;49.484;8.260;2023-02-21T04:53:17;8.40;22.60
32895;DHT22;19251;49.484;8.260;2023-02-21T04:58:18;8.50;22.30
32895;DHT22;19251;49.484;8.260;2023-02-21T05:03:21;8.30;22.70
32895;DHT22;19251;49.484;8.260;2023-02-21T05:08:23;8.20;22.60
32895;DHT22;19251;49.484;8.260;2023-02-21T05:13:29;8.10;22.60
32895;DHT22;19251;49.484;8.260;2023-02-21T05:18:31;8.00;22.60
32895;DHT22;19251;49.484;8.260;2023-02-21T05:23:35;8.00;22.90
32895;DHT22;19251;49.484;8.260;2023-02-21T05:28:38;8.00;22.60
32895;DHT22;19251;49.484;8.260;2023-02-21T05:33:40;7.90;22.90
32895;DHT22;19251;49.484;8.260;2023-02-21T05:38:43;7.80;22.90
32895;DHT22;19251;49.484;8.260;2023-02-21T05:43:46;7.80;23.10
32895;DHT22;19251;49.484;8.260;2023-02-21T05:48:49;7.80;23.00
32895;DHT22;19251;49.484;8.260;2023-02-21T05:53:51;7.70;23.20
32895;DHT22;19251;49.484;8.260;2023-02-21T05:58:53;7.70;22.80
32895;DHT22;19251;49.484;8.260;2023-02-21T06:03:55;7.60;22.80
32895;DHT22;19251;49.484;8.260;2023-02-21T06:08:57;7.60;23.20
32895;DHT22;19251;49.484;8.260;2023-02-21T06:13:59;7.40;23.30
32895;DHT22;19251;49.484;8.260;2023-02-21T06:19:03;7.30;23.40
32895;DHT22;19251;49.484;8.260;2023-02-21T06:24:05;7.30;23.40
32895;DHT22;19251;49.484;8.260;2023-02-21T06:29:08;7.20;23.00
32895;DHT22;19251;49.484;8.260;2023-02-21T06:34:11;7.10;23.50
32895;DHT22;19251;49.484;8.260;2023-02-21T06:39:13;7.10;23.60
32895;DHT22;19251;49.484;8.260;2023-02-21T06:44:15;7.10;23.70
32895;DHT22;19251;49.484;8.260;2023-02-21T06:54:20;6.80;23.70
32895;DHT22;19251;49.484;8.260;2023-02-21T06:59:22;6.90;23.90
32895;DHT22;19251;49.484;8.260;2023-02-21T07:04:24;7.00;24.10
32895;DHT22;19251;49.484;8.260;2023-02-21T07:09:26;7.00;24.30
32895;DHT22;19251;49.484;8.260;2023-02-21T07:14:28;7.10;24.50
32895;DHT22;19251;49.484;8.260;2023-02-21T07:19:31;7.20;24.60
32895;DHT22;19251;49.484;8.260;2023-02-21T07:24:33;7.30;24.70
32895;DHT22;19251;49.484;8.260;2023-02-21T07:29:37;7.30;24.70
32895;DHT22;19251;49.484;8.260;2023-02-21T07:34:39;7.60;24.90
32895;DHT22;19251;49.484;8.260;2023-02-21T07:39:41;7.50;25.00
32895;DHT22;19251;49.484;8.260;2023-02-21T07:44:43;7.80;25.10
32895;DHT22;19251;49.484;8.260;2023-02-21T07:49:45;7.80;25.10
32895;DHT22;19251;49.484;8.260;2023-02-21T07:54:47;7.90;25.50
32895;DHT22;19251;49.484;8.260;2023-02-21T07:59:49;8.20;25.80
32895;DHT22;19251;49.484;8.260;2023-02-21T08:04:51;8.50;26.10
32895;DHT22;19251;49.484;8.260;2023-02-21T08:09:54;8.50;25.40
32895;DHT22;19251;49.484;8.260;2023-02-21T08:14:56;8.90;25.70
32895;DHT22;19251;49.484;8.260;2023-02-21T08:19:58;9.10;25.80
32895;DHT22;19251;49.484;8.260;2023-02-21T08:25:00;9.30;26.40
32895;DHT22;19251;49.484;8.260;2023-02-21T08:30:02;9.70;26.40
32895;DHT22;19251;49.484;8.260;2023-02-21T08:35:05;10.00;25.70
32895;DHT22;19251;49.484;8.260;2023-02-21T08:40:07;10.30;25.70
32895;DHT22;19251;49.484;8.260;2023-02-21T08:45:13;10.50;25.50
32895;DHT22;19251;49.484;8.260;2023-02-21T08:50:17;10.80;25.80
32895;DHT22;19251;49.484;8.260;2023-02-21T08:55:19;10.90;25.70
32895;DHT22;19251;49.484;8.260;2023-02-21T09:00:22;11.30;25.90
32895;DHT22;19251;49.484;8.260;2023-02-21T09:05:26;11.10;25.90
32895;DHT22;19251;49.484;8.260;2023-02-21T09:10:29;11.40;25.60
32895;DHT22;19251;49.484;8.260;2023-02-21T09:15:34;11.60;25.60
32895;DHT22;19251;49.484;8.260;2023-02-21T09:20:36;11.80;25.60
32895;DHT22;19251;49.484;8.260;2023-02-21T09:25:43;12.00;25.50
32895;DHT22;19251;49.484;8.260;2023-02-21T09:30:45;12.20;25.40
32895;DHT22;19251;49.484;8.260;2023-02-21T09:35:47;12.50;25.30
32895;DHT22;19251;49.484;8.260;2023-02-21T09:40:57;12.50;25.00
32895;DHT22;19251;49.484;8.260;2023-02-21T09:46:01;12.60;24.80
32895;DHT22;19251;49.484;8.260;2023-02-21T09:51:04;12.90;25.10
32895;DHT22;19251;49.484;8.260;2023-02-21T09:56:24;13.10;24.80
32895;DHT22;19251;49.484;8.260;2023-02-21T10:16:59;13.80;23.90
32895;DHT22;19251;49.484;8.260;2023-02-21T10:22:10;14.00;24.20
32895;DHT22;19251;49.484;8.260;2023-02-21T10:27:18;14.10;24.10
32895;DHT22;19251;49.484;8.260;2023-02-21T10:32:21;14.70;24.00
32895;DHT22;19251;49.484;8.260;2023-02-21T10:42:39;14.70;23.00
32895;DHT22;19251;49.484;8.260;2023-02-21T10:47:49;14.80;23.00
32895;DHT22;19251;49.484;8.260;2023-02-21T10:52:54;15.00;23.70
32895;DHT22;19251;49.484;8.260;2023-02-21T10:57:56;15.30;22.70
32895;DHT22;19251;49.484;8.260;2023-02-21T11:03:06;15.20;22.40
32895;DHT22;19251;49.484;8.260;2023-02-21T11:08:14;15.40;22.90
32895;DHT22;19251;49.484;8.260;2023-02-21T11:13:18;15.70;21.70
32895;DHT22;19251;49.484;8.260;2023-02-21T11:18:22;15.70;21.10
32895;DHT22;19251;49.484;8.260;2023-02-21T11:28:27;16.20;21.10
32895;DHT22;19251;49.484;8.260;2023-02-21T11:33:29;16.30;21.00
32895;DHT22;19251;49.484;8.260;2023-02-21T11:43:40;16.80;20.50
32895;DHT22;19251;49.484;8.260;2023-02-21T11:49:10;17.00;20.20
32895;DHT22;19251;49.484;8.260;2023-02-21T11:54:15;17.30;19.90
32895;DHT22;19251;49.484;8.260;2023-02-21T11:59:25;17.50;19.40
32895;DHT22;19251;49.484;8.260;2023-02-21T12:04:52;17.80;19.20
32895;DHT22;19251;49.484;8.260;2023-02-21T12:10:07;18.20;19.30
32895;DHT22;19251;49.484;8.260;2023-02-21T12:15:24;18.30;18.40
32895;DHT22;19251;49.484;8.260;2023-02-21T12:21:02;18.70;18.10
32895;DHT22;19251;49.484;8.260;2023-02-21T12:41:59;19.70;16.30
32895;DHT22;19251;49.484;8.260;2023-02-21T12:52:20;20.40;15.60
32895;DHT22;19251;49.484;8.260;2023-02-21T12:57:27;20.90;15.10
32895;DHT22;19251;49.484;8.260;2023-02-21T13:02:54;21.20;14.80
32895;DHT22;19251;49.484;8.260;2023-02-21T13:08:00;21.20;14.90
32895;DHT22;19251;49.484;8.260;2023-02-21T13:13:09;21.40;14.60
32895;DHT22;19251;49.484;8.260;2023-02-21T13:28:59;22.20;12.10
32895;DHT22;19251;49.484;8.260;2023-02-21T13:34:01;22.20;12.70
32895;DHT22;19251;49.484;8.260;2023-02-21T13:44:29;22.70;10.70
32895;DHT22;19251;49.484;8.260;2023-02-21T13:49:42;22.80;10.40
32895;DHT22;19251;49.484;8.260;2023-02-21T14:15:49;23.40;8.80
32895;DHT22;19251;49.484;8.260;2023-02-21T14:20:52;23.60;9.20
32895;DHT22;19251;49.484;8.260;2023-02-21T14:25:57;23.70;8.00
32895;DHT22;19251;49.484;8.260;2023-02-21T14:31:01;23.70;8.60
32895;DHT22;19251;49.484;8.260;2023-02-21T14:36:05;23.80;7.40
32895;DHT22;19251;49.484;8.260;2023-02-21T14:41:35;23.80;6.80
32895;DHT22;19251;49.484;8.260;2023-02-21T14:46:47;23.80;6.60
32895;DHT22;19251;49.484;8.260;2023-02-21T15:02:22;23.50;5.80
32895;DHT22;19251;49.484;8.260;2023-02-21T15:07:33;23.40;5.80
32895;DHT22;19251;49.484;8.260;2023-02-21T15:12:44;23.40;6.50
32895;DHT22;19251;49.484;8.260;2023-02-21T15:17:54;22.90;5.60
32895;DHT22;19251;49.484;8.260;2023-02-21T15:23:01;22.90;5.80
32895;DHT22;19251;49.484;8.260;2023-02-21T15:28:12;22.70;5.50
32895;DHT22;19251;49.484;8.260;2023-02-21T15:33:19;22.30;5.60
32895;DHT22;19251;49.484;8.260;2023-02-21T15:48:33;21.50;5.80
32895;DHT22;19251;49.484;8.260;2023-02-21T15:53:36;21.30;5.80
32895;DHT22;19251;49.484;8.260;2023-02-21T15:58:38;20.90;5.80
32895;DHT22;19251;49.484;8.260;2023-02-21T16:03:44;20.90;6.00
32895;DHT22;19251;49.484;8.260;2023-02-21T16:13:52;20.50;6.10
32895;DHT22;19251;49.484;8.260;2023-02-21T16:18:54;20.50;7.00
32895;DHT22;19251;49.484;8.260;2023-02-21T16:23:57;20.10;7.00
32895;DHT22;19251;49.484;8.260;2023-02-21T16:29:14;19.50;6.60
32895;DHT22;19251;49.484;8.260;2023-02-21T16:34:17;19.30;7.00
32895;DHT22;19251;49.484;8.260;2023-02-21T16:39:19;18.90;7.10
32895;DHT22;19251;49.484;8.260;2023-02-21T16:44:21;18.50;7.00
32895;DHT22;19251;49.484;8.260;2023-02-21T16:49:24;18.30;6.80
32895;DHT22;19251;49.484;8.260;2023-02-21T16:54:26;18.00;7.10
32895;DHT22;19251;49.484;8.260;2023-02-21T16:59:28;17.90;7.80
32895;DHT22;19251;49.484;8.260;2023-02-21T17:04:30;17.30;7.60
32895;DHT22;19251;49.484;8.260;2023-02-21T17:09:32;17.10;7.70
32895;DHT22;19251;49.484;8.260;2023-02-21T17:14:34;16.80;7.90
32895;DHT22;19251;49.484;8.260;2023-02-21T17:19:36;16.50;8.20
32895;DHT22;19251;49.484;8.260;2023-02-21T17:24:38;16.30;8.20
32895;DHT22;19251;49.484;8.260;2023-02-21T17:29:40;16.20;8.90
32895;DHT22;19251;49.484;8.260;2023-02-21T17:39:45;15.20;9.10
32895;DHT22;19251;49.484;8.260;2023-02-21T17:44:47;15.30;9.50
32895;DHT22;19251;49.484;8.260;2023-02-21T17:49:51;15.00;9.50
32895;DHT22;19251;49.484;8.260;2023-02-21T17:54:55;14.50;9.60
32895;DHT22;19251;49.484;8.260;2023-02-21T17:59:57;14.50;10.30
32895;DHT22;19251;49.484;8.260;2023-02-21T18:04:59;13.90;10.40
32895;DHT22;19251;49.484;8.260;2023-02-21T18:10:03;13.80;10.30
32895;DHT22;19251;49.484;8.260;2023-02-21T18:21:09;13.20;10.80
32895;DHT22;19251;49.484;8.260;2023-02-21T18:26:12;13.10;11.40
32895;DHT22;19251;49.484;8.260;2023-02-21T18:31:15;13.20;11.70
32895;DHT22;19251;49.484;8.260;2023-02-21T18:36:18;12.70;11.50
32895;DHT22;19251;49.484;8.260;2023-02-21T18:41:20;12.70;12.10
32895;DHT22;19251;49.484;8.260;2023-02-21T18:46:23;12.50;12.30
32895;DHT22;19251;49.484;8.260;2023-02-21T18:51:26;12.50;12.50
32895;DHT22;19251;49.484;8.260;2023-02-21T18:56:28;12.20;12.60
32895;DHT22;19251;49.484;8.260;2023-02-21T19:01:30;12.00;12.50
32895;DHT22;19251;49.484;8.260;2023-02-21T19:06:32;13.70;14.10
32895;DHT22;19251;49.484;8.260;2023-02-21T19:11:34;11.50;12.70
32895;DHT22;19251;49.484;8.260;2023-02-21T19:16:36;11.30;12.90
32895;DHT22;19251;49.484;8.260;2023-02-21T19:21:38;11.20;13.30
32895;DHT22;19251;49.484;8.260;2023-02-21T19:26:40;10.90;13.50
32895;DHT22;19251;49.484;8.260;2023-02-21T19:31:43;10.80;13.50
32895;DHT22;19251;49.484;8.260;2023-02-21T19:36:46;10.70;13.90
32895;DHT22;19251;49.484;8.260;2023-02-21T19:41:48;10.60;14.10
32895;DHT22;19251;49.484;8.260;2023-02-21T19:46:50;10.50;13.80
32895;DHT22;19251;49.484;8.260;2023-02-21T19:51:52;10.30;14.30
32895;DHT22;19251;49.484;8.260;2023-02-21T19:56:55;10.30;14.50
32895;DHT22;19251;49.484;8.260;2023-02-21T20:01:57;10.40;14.80
32895;DHT22;19251;49.484;8.260;2023-02-21T20:07:01;10.10;14.80
32895;DHT22;19251;49.484;8.260;2023-02-21T20:12:03;10.00;15.00
32895;DHT22;19251;49.484;8.260;2023-02-21T20:17:05;10.00;14.60
32895;DHT22;19251;49.484;8.260;2023-02-21T20:22:08;9.80;16.10
32895;DHT22;19251;49.484;8.260;2023-02-21T20:27:11;9.90;16.20
32895;DHT22;19251;49.484;8.260;2023-02-21T20:32:13;10.10;15.90
32895;DHT22;19251;49.484;8.260;2023-02-21T20:37:19;9.50;16.50
32895;DHT22;19251;49.484;8.260;2023-02-21T20:42:21;9.40;16.80
32895;DHT22;19251;49.484;8.260;2023-02-21T20:47:25;9.30;16.60
32895;DHT22;19251;49.484;8.260;2023-02-21T20:52:29;9.30;17.10
32895;DHT22;19251;49.484;8.260;2023-02-21T20:57:32;9.20;17.10
32895;DHT22;19251;49.484;8.260;2023-02-21T21:02:34;9.10;16.90
32895;DHT22;19251;49.484;8.260;2023-02-21T21:07:36;9.20;17.60
32895;DHT22;19251;49.484;8.260;2023-02-21T21:12:39;8.90;17.40
32895;DHT22;19251;49.484;8.260;2023-02-21T21:17:41;9.00;17.50
32895;DHT22;19251;49.484;8.260;2023-02-21T21:22:43;8.90;17.50
32895;DHT22;19251;49.484;8.260;2023-02-21T21:27:45;8.90;17.90
32895;DHT22;19251;49.484;8.260;2023-02-21T21:32:48;8.70;18.00
32895;DHT22;19251;49.484;8.260;2023-02-21T21:37:50;8.70;18.00
32895;DHT22;19251;49.484;8.260;2023-02-21T21:42:52;8.50;17.60
32895;DHT22;19251;49.484;8.260;2023-02-21T21:47:55;8.50;17.70
32895;DHT22;19251;49.484;8.260;2023-02-21T21:53:00;8.30;18.00
32895;DHT22;19251;49.484;8.260;2023-02-21T21:58:03;8.30;18.40
32895;DHT22;19251;49.484;8.260;2023-02-21T22:03:11;8.10;18.20
32895;DHT22;19251;49.484;8.260;2023-02-21T22:08:16;8.40;18.70
32895;DHT22;19251;49.484;8.260;2023-02-21T22:13:19;8.00;18.60
32895;DHT22;19251;49.484;8.260;2023-02-21T22:18:22;8.10;18.70
32895;DHT22;19251;49.484;8.260;2023-02-21T22:23:24;8.00;18.80
32895;DHT22;19251;49.484;8.260;2023-02-21T22:28:26;7.80;18.50
32895;DHT22;19251;49.484;8.260;2023-02-21T22:33:28;7.90;19.20
32895;DHT22;19251;49.484;8.260;2023-02-21T22:38:30;7.90;19.20
32895;DHT22;19251;49.484;8.260;2023-02-21T22:43:33;7.90;19.50
32895;DHT22;19251;49.484;8.260;2023-02-21T22:53:37;8.30;19.80
32895;DHT22;19251;49.484;8.260;2023-02-21T22:58:39;7.70;19.30
32895;DHT22;19251;49.484;8.260;2023-02-21T23:03:41;7.60;19.40
32895;DHT22;19251;49.484;8.260;2023-02-21T23:08:47;7.50;19.40
32895;DHT22;19251;49.484;8.260;2023-02-21T23:13:49;7.40;19.40
32895;DHT22;19251;49.484;8.260;2023-02-21T23:18:53;7.30;19.40
32895;DHT22;19251;49.484;8.260;2023-02-21T23:23:56;7.20;19.50
32895;DHT22;19251;49.484;8.260;2023-02-21T23:28:59;7.10;19.80
32895;DHT22;19251;49.484;8.260;2023-02-21T23:34:01;7.00;19.60
32895;DHT22;19251;49.484;8.260;2023-02-21T23:39:03;7.00;20.00
32895;DHT22;19251;49.484;8.260;2023-02-21T23:44:10;6.80;20.10
32895;DHT22;19251;49.484;8.260;2023-02-21T23:49:13;6.70;20.10
32895;DHT22;19251;49.484;8.260;2023-02-21T23:54:17;6.70;19.70
32895;DHT22;19251;49.484;8.260;2023-02-21T23:59:19;6.70;19.90
